createdAt,value
2019-02-25T00:00:45.832Z,89.5
2019-02-25T00:01:45.819Z,89.87
2019-02-25T00:02:45.791Z,89.22
2019-02-25T00:03:45.522Z,89.5
2019-02-25T00:04:45.754Z,89.31
2019-02-25T00:05:45.736Z,89.31
2019-02-25T00:06:45.716Z,89.22
2019-02-25T00:07:45.698Z,89.22
2019-02-25T00:08:45.677Z,89.5
2019-02-25T00:09:45.660Z,89.5
2019-02-25T00:10:45.639Z,89.78
2019-02-25T00:11:45.616Z,90.35
2019-02-25T00:12:45.604Z,90.91
2019-02-25T00:13:45.580Z,91.39
2019-02-25T00:14:45.568Z,92.33
2019-02-25T00:15:45.545Z,93.56
2019-02-25T00:16:45.277Z,93.94
2019-02-25T00:17:45.508Z,94.51
2019-02-25T00:18:45.485Z,93.94
2019-02-25T00:19:45.221Z,94.51
2019-02-25T00:20:45.449Z,94.6
2019-02-25T00:21:45.430Z,95.64
2019-02-25T00:22:45.414Z,96.3
2019-02-25T00:23:45.406Z,96.87
2019-02-25T00:24:45.375Z,97.72
2019-02-25T00:25:45.105Z,98.66
2019-02-25T00:26:45.336Z,99.14
2019-02-25T00:27:45.334Z,98.85
2019-02-25T00:28:45.296Z,99.23
2019-02-25T00:29:45.282Z,99.33
2019-02-25T00:30:45.259Z,98.76
2019-02-25T00:31:44.998Z,98.76
2019-02-25T00:32:45.218Z,98.38
2019-02-25T00:33:45.200Z,98.47
2019-02-25T00:34:45.185Z,98.95
2019-02-25T00:35:45.163Z,98.95
2019-02-25T00:36:45.143Z,99.04
2019-02-25T00:37:45.128Z,98.57
2019-02-25T00:38:45.107Z,98.1
2019-02-25T00:39:45.086Z,98.28
2019-02-25T00:40:45.080Z,97.63
2019-02-25T00:41:45.049Z,97.91
2019-02-25T00:42:45.033Z,98.76
2019-02-25T00:43:45.036Z,98.57
2019-02-25T00:44:44.991Z,99.04
2019-02-25T00:45:44.977Z,99.71
2019-02-25T00:46:44.968Z,99.52
2019-02-25T00:47:44.930Z,99.89
2019-02-25T00:48:44.972Z,99.99
2019-02-25T00:49:44.894Z,99.99
2019-02-25T00:50:44.874Z,99.8
2019-02-25T00:51:44.859Z,99.99
2019-02-25T00:52:44.840Z,99.99
2019-02-25T00:53:44.816Z,99.99
2019-02-25T00:54:44.810Z,99.99
2019-02-25T00:55:44.780Z,99.99
2019-02-25T00:56:44.767Z,99.99
2019-02-25T00:57:44.502Z,99.99
2019-02-25T00:58:44.721Z,99.99
2019-02-25T00:59:44.707Z,99.99
2019-02-25T01:00:44.684Z,99.99
2019-02-25T01:01:44.667Z,99.99
2019-02-25T01:02:44.647Z,99.99
2019-02-25T01:03:44.630Z,99.99
2019-02-25T01:04:44.609Z,99.99
2019-02-25T01:05:44.587Z,99.99
2019-02-25T01:06:44.582Z,99.99
2019-02-25T01:07:44.553Z,99.99
2019-02-25T01:08:44.533Z,99.99
2019-02-25T01:09:44.267Z,99.99
2019-02-25T01:10:44.495Z,99.99
2019-02-25T01:11:44.476Z,99.99
2019-02-25T01:12:44.456Z,99.99
2019-02-25T01:13:44.436Z,99.99
2019-02-25T01:14:44.418Z,99.99
2019-02-25T01:15:44.400Z,99.99
2019-02-25T01:16:44.382Z,99.99
2019-02-25T01:17:44.362Z,99.99
2019-02-25T01:18:44.341Z,99.99
2019-02-25T01:19:44.073Z,99.99
2019-02-25T01:20:44.305Z,99.99
2019-02-25T01:21:44.283Z,99.99
2019-02-25T01:22:44.263Z,99.99
2019-02-25T01:23:44.246Z,99.99
2019-02-25T01:24:44.226Z,99.99
2019-02-25T01:25:44.210Z,99.99
2019-02-25T01:26:44.190Z,99.99
2019-02-25T01:27:44.168Z,99.99
2019-02-25T01:28:44.152Z,99.99
2019-02-25T01:29:44.131Z,99.99
2019-02-25T01:30:44.116Z,99.99
2019-02-25T01:31:44.091Z,99.99
2019-02-25T01:32:44.072Z,99.99
2019-02-25T01:33:43.804Z,99.99
2019-02-25T01:34:44.035Z,99.99
2019-02-25T01:35:44.016Z,99.99
2019-02-25T01:36:44.001Z,99.99
2019-02-25T01:37:43.729Z,99.99
2019-02-25T01:38:43.963Z,99.99
2019-02-25T01:39:43.944Z,99.99
2019-02-25T01:40:43.925Z,99.99
2019-02-25T01:41:43.900Z,99.99
2019-02-25T01:42:43.930Z,99.99
2019-02-25T01:43:43.865Z,99.99
2019-02-25T01:44:43.845Z,99.99
2019-02-25T01:45:43.830Z,99.99
2019-02-25T01:46:43.806Z,99.99
2019-02-25T01:47:43.788Z,99.99
2019-02-25T01:48:43.766Z,99.99
2019-02-25T01:49:43.748Z,99.99
2019-02-25T01:50:43.730Z,99.99
2019-02-25T01:51:43.464Z,99.99
2019-02-25T01:52:43.440Z,99.99
2019-02-25T01:53:43.674Z,99.99
2019-02-25T01:54:43.652Z,99.99
2019-02-25T01:55:43.633Z,99.99
2019-02-25T01:56:43.614Z,99.99
2019-02-25T01:57:43.599Z,99.99
2019-02-25T01:58:43.575Z,99.99
2019-02-25T01:59:43.556Z,99.99
2019-02-25T02:00:43.545Z,99.99
2019-02-25T02:01:43.518Z,99.99
2019-02-25T02:02:43.505Z,99.99
2019-02-25T02:03:43.234Z,99.99
2019-02-25T02:04:43.461Z,99.99
2019-02-25T02:05:43.450Z,99.99
2019-02-25T02:06:43.424Z,99.99
2019-02-25T02:07:43.413Z,99.99
2019-02-25T02:08:43.386Z,99.99
2019-02-25T02:09:43.520Z,99.99
2019-02-25T02:10:43.353Z,99.99
2019-02-25T02:11:43.327Z,99.99
2019-02-25T02:12:43.312Z,99.99
2019-02-25T02:13:43.040Z,99.99
2019-02-25T02:14:43.272Z,99.99
2019-02-25T02:15:43.252Z,99.99
2019-02-25T02:16:42.992Z,99.99
2019-02-25T02:17:43.214Z,99.99
2019-02-25T02:18:43.194Z,99.99
2019-02-25T02:19:43.177Z,99.99
2019-02-25T02:20:43.156Z,99.99
2019-02-25T02:21:43.139Z,99.99
2019-02-25T02:22:43.115Z,99.99
2019-02-25T02:23:43.099Z,99.99
2019-02-25T02:24:43.080Z,99.99
2019-02-25T02:25:43.060Z,99.99
2019-02-25T02:26:43.040Z,99.99
2019-02-25T02:27:43.055Z,99.99
2019-02-25T02:28:43.007Z,99.99
2019-02-25T02:29:42.986Z,99.99
2019-02-25T02:30:42.962Z,99.99
2019-02-25T02:31:42.951Z,99.99
2019-02-25T02:32:42.929Z,99.99
2019-02-25T02:33:42.951Z,99.99
2019-02-25T02:34:42.894Z,99.99
2019-02-25T02:35:42.876Z,99.99
2019-02-25T02:36:42.854Z,99.99
2019-02-25T02:37:42.831Z,99.99
2019-02-25T02:38:42.830Z,99.99
2019-02-25T02:39:42.805Z,99.99
2019-02-25T02:40:42.777Z,99.99
2019-02-25T02:41:42.757Z,99.99
2019-02-25T02:42:42.752Z,99.99
2019-02-25T02:43:42.717Z,99.99
2019-02-25T02:44:42.699Z,99.99
2019-02-25T02:45:42.685Z,99.99
2019-02-25T02:46:42.666Z,99.99
2019-02-25T02:47:42.676Z,99.99
2019-02-25T02:48:42.621Z,99.99
2019-02-25T02:49:42.623Z,99.99
2019-02-25T02:50:42.585Z,99.99
2019-02-25T02:51:42.578Z,99.99
2019-02-25T02:52:42.551Z,99.99
2019-02-25T02:53:42.530Z,99.99
2019-02-25T02:54:42.519Z,99.99
2019-02-25T02:55:42.619Z,99.99
2019-02-25T02:56:42.471Z,99.99
2019-02-25T02:57:42.455Z,99.99
2019-02-25T02:58:42.435Z,99.99
2019-02-25T02:59:42.175Z,99.99
2019-02-25T03:00:42.393Z,99.99
2019-02-25T03:01:42.375Z,99.99
2019-02-25T03:02:42.357Z,99.99
2019-02-25T03:03:42.337Z,99.99
2019-02-25T03:04:42.321Z,99.99
2019-02-25T03:05:42.308Z,99.99
2019-02-25T03:06:42.281Z,99.99
2019-02-25T03:07:42.265Z,99.99
2019-02-25T03:08:42.245Z,99.99
2019-02-25T03:09:42.232Z,99.99
2019-02-25T03:10:42.204Z,99.99
2019-02-25T03:11:42.184Z,99.99
2019-02-25T03:12:42.167Z,99.99
2019-02-25T03:13:42.149Z,99.99
2019-02-25T03:14:42.131Z,99.99
2019-02-25T03:15:42.109Z,99.99
2019-02-25T03:16:42.103Z,99.99
2019-02-25T03:17:41.822Z,99.99
2019-02-25T03:18:42.050Z,99.99
2019-02-25T03:19:42.036Z,99.99
2019-02-25T03:20:42.016Z,99.99
2019-02-25T03:21:41.995Z,99.99
2019-02-25T03:22:41.975Z,99.99
2019-02-25T03:23:41.965Z,99.99
2019-02-25T03:24:41.940Z,99.99
2019-02-25T03:25:41.916Z,99.99
2019-02-25T03:26:41.905Z,99.99
2019-02-25T03:27:41.879Z,99.99
2019-02-25T03:28:41.869Z,99.99
2019-02-25T03:29:41.597Z,99.99
2019-02-25T03:30:41.837Z,99.99
2019-02-25T03:31:41.811Z,99.99
2019-02-25T03:32:41.797Z,99.99
2019-02-25T03:33:41.784Z,99.99
2019-02-25T03:34:41.761Z,99.99
2019-02-25T03:35:41.731Z,99.99
2019-02-25T03:36:41.713Z,99.99
2019-02-25T03:37:41.694Z,99.99
2019-02-25T03:38:41.673Z,99.99
2019-02-25T03:39:41.655Z,99.99
2019-02-25T03:40:41.392Z,99.99
2019-02-25T03:41:41.617Z,99.99
2019-02-25T03:42:41.598Z,99.99
2019-02-25T03:43:41.586Z,99.99
2019-02-25T03:44:41.564Z,99.99
2019-02-25T03:45:41.594Z,99.99
2019-02-25T03:46:41.522Z,99.99
2019-02-25T03:47:41.503Z,99.99
2019-02-25T03:48:41.485Z,99.99
2019-02-25T03:49:41.463Z,99.99
2019-02-25T03:50:41.593Z,99.99
2019-02-25T03:51:41.429Z,99.99
2019-02-25T03:52:41.423Z,99.99
2019-02-25T03:53:41.392Z,99.99
2019-02-25T03:54:41.369Z,99.99
2019-02-25T03:55:41.349Z,99.99
2019-02-25T03:56:41.329Z,99.99
2019-02-25T03:57:41.319Z,99.99
2019-02-25T03:58:41.299Z,99.99
2019-02-25T03:59:41.273Z,99.99
2019-02-25T04:00:41.256Z,99.99
2019-02-25T04:01:41.254Z,99.99
2019-02-25T04:02:41.218Z,99.99
2019-02-25T04:03:41.193Z,99.99
2019-02-25T04:04:41.257Z,99.99
2019-02-25T04:05:41.164Z,99.99
2019-02-25T04:06:41.149Z,99.99
2019-02-25T04:07:41.125Z,99.99
2019-02-25T04:08:41.105Z,99.99
2019-02-25T04:09:41.096Z,99.99
2019-02-25T04:10:41.065Z,99.99
2019-02-25T04:11:40.796Z,99.99
2019-02-25T04:12:41.025Z,99.99
2019-02-25T04:13:41.003Z,99.99
2019-02-25T04:14:40.988Z,99.99
2019-02-25T04:15:40.970Z,99.99
2019-02-25T04:16:40.707Z,99.99
2019-02-25T04:17:40.935Z,99.99
2019-02-25T04:18:40.912Z,99.99
2019-02-25T04:19:40.900Z,99.99
2019-02-25T04:20:40.872Z,99.99
2019-02-25T04:21:40.852Z,99.99
2019-02-25T04:22:40.834Z,99.99
2019-02-25T04:23:40.821Z,99.99
2019-02-25T04:24:40.545Z,99.99
2019-02-25T04:25:40.777Z,99.99
2019-02-25T04:26:40.765Z,99.99
2019-02-25T04:27:40.762Z,99.99
2019-02-25T04:28:40.720Z,99.99
2019-02-25T04:29:40.703Z,99.99
2019-02-25T04:30:40.449Z,99.99
2019-02-25T04:31:40.671Z,99.99
2019-02-25T04:32:40.645Z,99.99
2019-02-25T04:33:40.626Z,99.99
2019-02-25T04:34:40.609Z,99.99
2019-02-25T04:35:40.600Z,99.99
2019-02-25T04:36:40.567Z,99.99
2019-02-25T04:37:40.364Z,99.99
2019-02-25T04:38:40.532Z,99.99
2019-02-25T04:39:40.547Z,99.99
2019-02-25T04:40:40.491Z,99.99
2019-02-25T04:41:40.475Z,99.99
2019-02-25T04:42:40.451Z,99.99
2019-02-25T04:43:40.432Z,99.99
2019-02-25T04:44:40.415Z,99.99
2019-02-25T04:45:40.424Z,99.99
2019-02-25T04:46:40.433Z,99.99
2019-02-25T04:47:40.375Z,99.99
2019-02-25T04:48:40.341Z,99.99
2019-02-25T04:49:40.325Z,99.99
2019-02-25T04:50:40.301Z,99.99
2019-02-25T04:51:40.300Z,99.99
2019-02-25T04:52:40.264Z,99.99
2019-02-25T04:53:40.246Z,99.99
2019-02-25T04:54:40.221Z,99.99
2019-02-25T04:55:40.202Z,99.99
2019-02-25T04:56:40.187Z,99.99
2019-02-25T04:57:39.950Z,99.99
2019-02-25T04:58:40.146Z,99.99
2019-02-25T04:59:40.128Z,99.99
2019-02-25T05:00:40.105Z,99.99
2019-02-25T05:01:40.088Z,99.99
2019-02-25T05:02:40.076Z,99.99
2019-02-25T05:03:40.056Z,99.99
2019-02-25T05:04:40.034Z,99.99
2019-02-25T05:05:40.009Z,99.99
2019-02-25T05:06:39.991Z,99.99
2019-02-25T05:07:39.978Z,99.99
2019-02-25T05:08:39.959Z,99.99
2019-02-25T05:09:39.985Z,99.99
2019-02-25T05:10:39.672Z,99.99
2019-02-25T05:11:39.897Z,99.99
2019-02-25T05:12:39.632Z,99.99
2019-02-25T05:13:39.862Z,99.99
2019-02-25T05:14:39.843Z,99.99
2019-02-25T05:15:39.826Z,99.99
2019-02-25T05:16:40.092Z,99.99
2019-02-25T05:17:39.782Z,99.99
2019-02-25T05:18:39.767Z,99.99
2019-02-25T05:19:39.794Z,99.99
2019-02-25T05:20:39.723Z,99.99
2019-02-25T05:21:39.705Z,99.99
2019-02-25T05:22:40.122Z,99.99
2019-02-25T05:23:39.677Z,99.99
2019-02-25T05:24:39.650Z,99.99
2019-02-25T05:25:39.629Z,99.99
2019-02-25T05:26:39.612Z,99.99
2019-02-25T05:27:39.595Z,99.99
2019-02-25T05:28:39.578Z,99.99
2019-02-25T05:29:39.566Z,99.99
2019-02-25T05:30:39.534Z,99.99
2019-02-25T05:31:39.515Z,99.99
2019-02-25T05:32:39.503Z,99.99
2019-02-25T05:33:39.475Z,99.99
2019-02-25T05:34:39.457Z,99.99
2019-02-25T05:35:39.446Z,99.99
2019-02-25T05:36:39.422Z,99.99
2019-02-25T05:37:39.401Z,99.99
2019-02-25T05:38:39.139Z,99.99
2019-02-25T05:39:39.361Z,99.99
2019-02-25T05:40:39.351Z,99.99
2019-02-25T05:41:39.333Z,99.99
2019-02-25T05:42:39.303Z,99.99
2019-02-25T05:43:39.283Z,99.99
2019-02-25T05:44:39.267Z,99.99
2019-02-25T05:45:39.246Z,99.99
2019-02-25T05:46:39.228Z,99.99
2019-02-25T05:47:39.213Z,99.99
2019-02-25T05:48:39.202Z,99.99
2019-02-25T05:49:39.176Z,99.99
2019-02-25T05:50:38.902Z,99.99
2019-02-25T05:51:39.132Z,99.99
2019-02-25T05:52:39.112Z,99.99
2019-02-25T05:53:39.096Z,99.99
2019-02-25T05:54:39.105Z,99.99
2019-02-25T05:55:39.073Z,99.99
2019-02-25T05:56:39.034Z,99.99
2019-02-25T05:57:39.021Z,99.99
2019-02-25T05:58:39.006Z,99.99
2019-02-25T05:59:38.984Z,99.99
2019-02-25T06:00:38.962Z,99.99
2019-02-25T06:01:38.939Z,99.99
2019-02-25T06:02:38.920Z,99.99
2019-02-25T06:03:38.902Z,99.99
2019-02-25T06:04:38.892Z,99.99
2019-02-25T06:05:38.866Z,99.99
2019-02-25T06:06:38.847Z,99.99
2019-02-25T06:07:38.824Z,99.99
2019-02-25T06:08:38.806Z,99.99
2019-02-25T06:09:38.786Z,99.99
2019-02-25T06:10:38.768Z,99.99
2019-02-25T06:11:38.752Z,99.99
2019-02-25T06:12:38.731Z,99.99
2019-02-25T06:13:38.710Z,99.99
2019-02-25T06:14:38.699Z,99.99
2019-02-25T06:15:38.672Z,99.99
2019-02-25T06:16:38.653Z,99.99
2019-02-25T06:17:38.638Z,99.99
2019-02-25T06:18:38.617Z,99.99
2019-02-25T06:19:38.595Z,99.99
2019-02-25T06:20:38.576Z,99.99
2019-02-25T06:21:38.560Z,99.99
2019-02-25T06:22:38.575Z,99.99
2019-02-25T06:23:38.518Z,99.99
2019-02-25T06:24:38.258Z,99.99
2019-02-25T06:25:38.484Z,99.99
2019-02-25T06:26:38.729Z,99.99
2019-02-25T06:27:38.192Z,99.99
2019-02-25T06:28:38.434Z,99.99
2019-02-25T06:29:38.404Z,99.99
2019-02-25T06:30:38.389Z,99.99
2019-02-25T06:31:38.372Z,99.99
2019-02-25T06:32:38.346Z,99.99
2019-02-25T06:33:38.333Z,99.99
2019-02-25T06:34:38.310Z,99.99
2019-02-25T06:35:38.296Z,99.99
2019-02-25T06:36:38.283Z,99.99
2019-02-25T06:37:38.008Z,99.99
2019-02-25T06:38:38.235Z,99.99
2019-02-25T06:39:38.228Z,99.99
2019-02-25T06:40:38.194Z,99.99
2019-02-25T06:41:38.179Z,99.99
2019-02-25T06:42:38.158Z,99.99
2019-02-25T06:43:38.138Z,99.99
2019-02-25T06:44:38.127Z,99.99
2019-02-25T06:45:37.859Z,99.99
2019-02-25T06:46:38.084Z,99.99
2019-02-25T06:47:38.062Z,99.99
2019-02-25T06:48:38.195Z,99.99
2019-02-25T06:49:38.027Z,99.99
2019-02-25T06:50:38.012Z,99.99
2019-02-25T06:51:37.995Z,99.99
2019-02-25T06:52:37.725Z,99.99
2019-02-25T06:53:37.953Z,99.99
2019-02-25T06:54:37.690Z,99.99
2019-02-25T06:55:37.916Z,99.99
2019-02-25T06:56:37.895Z,99.99
2019-02-25T06:57:37.879Z,99.99
2019-02-25T06:58:37.861Z,99.99
2019-02-25T06:59:37.842Z,99.99
2019-02-25T07:00:37.829Z,99.99
2019-02-25T07:01:37.804Z,99.99
2019-02-25T07:02:37.787Z,99.99
2019-02-25T07:03:37.767Z,99.99
2019-02-25T07:04:37.747Z,99.99
2019-02-25T07:05:37.732Z,99.99
2019-02-25T07:06:37.710Z,99.99
2019-02-25T07:07:37.691Z,99.99
2019-02-25T07:08:37.677Z,99.99
2019-02-25T07:09:38.933Z,99.99
2019-02-25T07:10:37.641Z,99.99
2019-02-25T07:11:37.621Z,99.99
2019-02-25T07:12:37.601Z,99.99
2019-02-25T07:13:37.587Z,99.99
2019-02-25T07:14:37.587Z,99.99
2019-02-25T07:15:37.546Z,99.99
2019-02-25T07:16:37.527Z,99.99
2019-02-25T07:17:37.511Z,99.99
2019-02-25T07:18:37.490Z,99.99
2019-02-25T07:19:37.480Z,99.99
2019-02-25T07:20:37.459Z,99.99
2019-02-25T07:21:37.437Z,99.99
2019-02-25T07:22:37.417Z,99.99
2019-02-25T07:23:37.757Z,99.99
2019-02-25T07:24:37.387Z,99.99
2019-02-25T07:25:37.362Z,99.99
2019-02-25T07:26:37.346Z,99.99
2019-02-25T07:27:37.326Z,99.99
2019-02-25T07:28:39.098Z,99.99
2019-02-25T07:29:37.291Z,99.99
2019-02-25T07:30:37.025Z,99.99
2019-02-25T07:31:37.263Z,99.99
2019-02-25T07:32:37.236Z,99.99
2019-02-25T07:33:37.224Z,99.99
2019-02-25T07:34:36.968Z,99.99
2019-02-25T07:35:37.183Z,99.99
2019-02-25T07:36:37.166Z,99.99
2019-02-25T07:37:37.148Z,99.99
2019-02-25T07:38:42.163Z,99.99
2019-02-25T07:39:37.112Z,99.99
2019-02-25T07:40:37.096Z,99.99
2019-02-25T07:41:38.203Z,99.99
2019-02-25T07:42:37.059Z,99.99
2019-02-25T07:43:37.045Z,99.99
2019-02-25T07:44:37.022Z,99.99
2019-02-25T07:45:37.007Z,99.99
2019-02-25T07:46:36.994Z,99.99
2019-02-25T07:47:36.973Z,99.99
2019-02-25T07:48:36.961Z,99.99
2019-02-25T07:49:36.937Z,99.99
2019-02-25T07:50:36.969Z,99.99
2019-02-25T07:51:36.903Z,99.99
2019-02-25T07:52:36.888Z,99.99
2019-02-25T07:53:36.867Z,99.99
2019-02-25T07:54:36.856Z,99.99
2019-02-25T07:55:36.834Z,99.99
2019-02-25T07:56:36.816Z,99.99
2019-02-25T07:57:36.797Z,99.99
2019-02-25T07:58:36.781Z,99.99
2019-02-25T07:59:36.767Z,99.99
2019-02-25T08:00:36.749Z,99.99
2019-02-25T08:01:36.481Z,99.99
2019-02-25T08:02:36.718Z,99.99
2019-02-25T08:03:36.448Z,99.99
2019-02-25T08:04:36.679Z,99.99
2019-02-25T08:05:36.664Z,99.99
2019-02-25T08:06:36.645Z,99.99
2019-02-25T08:07:36.629Z,99.99
2019-02-25T08:08:36.611Z,99.99
2019-02-25T08:09:36.595Z,99.99
2019-02-25T08:10:36.578Z,99.99
2019-02-25T08:11:36.565Z,99.99
2019-02-25T08:12:36.549Z,99.99
2019-02-25T08:13:36.529Z,99.99
2019-02-25T08:14:36.515Z,99.99
2019-02-25T08:15:36.500Z,99.99
2019-02-25T08:16:36.477Z,99.99
2019-02-25T08:17:36.213Z,99.99
2019-02-25T08:18:36.450Z,99.99
2019-02-25T08:19:36.427Z,99.99
2019-02-25T08:20:36.416Z,99.99
2019-02-25T08:21:36.397Z,99.99
2019-02-25T08:22:36.381Z,99.99
2019-02-25T08:23:36.365Z,99.99
2019-02-25T08:24:36.351Z,99.99
2019-02-25T08:25:36.332Z,99.99
2019-02-25T08:26:36.317Z,99.99
2019-02-25T08:27:36.302Z,99.99
2019-02-25T08:28:36.285Z,99.99
2019-02-25T08:29:36.275Z,99.99
2019-02-25T08:30:36.252Z,99.99
2019-02-25T08:31:36.236Z,99.99
2019-02-25T08:32:36.221Z,99.99
2019-02-25T08:33:36.204Z,99.99
2019-02-25T08:34:36.187Z,98.49
2019-02-25T08:35:36.178Z,96.59
2019-02-25T08:36:37.531Z,95.31
2019-02-25T08:37:36.141Z,93.32
2019-02-25T08:38:36.146Z,91.24
2019-02-25T08:39:36.114Z,88.58
2019-02-25T08:40:36.096Z,86.21
2019-02-25T08:41:36.079Z,83.36
2019-02-25T08:42:35.818Z,80.62
2019-02-25T08:43:36.049Z,78.05
2019-02-25T08:44:36.031Z,76.34
2019-02-25T08:45:36.019Z,74.35
2019-02-25T08:46:36.005Z,72.93
2019-02-25T08:47:36.001Z,71.6
2019-02-25T08:48:35.979Z,70.56
2019-02-25T08:49:35.959Z,68.76
2019-02-25T08:50:35.948Z,67.18
2019-02-25T08:51:35.929Z,66.2
2019-02-25T08:52:35.910Z,65.56
2019-02-25T08:53:35.913Z,64.52
2019-02-25T08:54:35.635Z,64.43
2019-02-25T08:55:35.620Z,63.57
2019-02-25T08:56:35.853Z,62.91
2019-02-25T08:57:35.840Z,62.53
2019-02-25T08:58:35.830Z,61.68
2019-02-25T08:59:35.808Z,61.68
2019-02-25T09:00:35.797Z,61.58
2019-02-25T09:01:35.785Z,61.39
2019-02-25T09:02:35.763Z,61.11
2019-02-25T09:03:35.749Z,61.14
2019-02-25T09:04:35.735Z,61.33
2019-02-25T09:05:35.723Z,60.57
2019-02-25T09:06:35.706Z,60.38
2019-02-25T09:07:35.693Z,60
2019-02-25T09:08:35.682Z,60.38
2019-02-25T09:09:35.665Z,60
2019-02-25T09:10:35.651Z,59.52
2019-02-25T09:11:35.391Z,59.24
2019-02-25T09:12:35.624Z,58.95
2019-02-25T09:13:35.608Z,59.33
2019-02-25T09:14:35.592Z,58.95
2019-02-25T09:15:35.580Z,59.05
2019-02-25T09:16:35.569Z,58.98
2019-02-25T09:17:35.548Z,59.08
2019-02-25T09:18:35.538Z,58.03
2019-02-25T09:19:35.524Z,57.28
2019-02-25T09:20:35.266Z,56.42
2019-02-25T09:21:35.502Z,56.13
2019-02-25T09:22:35.482Z,56.7
2019-02-25T09:23:35.470Z,56.89
2019-02-25T09:24:35.455Z,56.04
2019-02-25T09:25:35.441Z,54.9
2019-02-25T09:26:35.427Z,54.61
2019-02-25T09:27:35.415Z,54.74
2019-02-25T09:28:35.397Z,54.64
2019-02-25T09:29:35.386Z,53.41
2019-02-25T09:30:35.375Z,52.45
2019-02-25T09:31:35.369Z,51.89
2019-02-25T09:32:35.345Z,52.36
2019-02-25T09:33:35.333Z,52.45
2019-02-25T09:34:35.321Z,52.64
2019-02-25T09:35:35.312Z,51.79
2019-02-25T09:36:35.295Z,51.12
2019-02-25T09:37:37.252Z,49.44
2019-02-25T09:38:35.272Z,48.96
2019-02-25T09:39:35.256Z,48.96
2019-02-25T09:40:34.992Z,47.92
2019-02-25T09:41:35.232Z,47.16
2019-02-25T09:42:35.218Z,46.2
2019-02-25T09:43:35.207Z,46.97
2019-02-25T09:44:35.189Z,46.3
2019-02-25T09:45:35.179Z,46.3
2019-02-25T09:46:35.167Z,46.68
2019-02-25T09:47:35.153Z,46.4
2019-02-25T09:48:35.136Z,45.83
2019-02-25T09:49:35.126Z,44.49
2019-02-25T09:50:35.115Z,45.07
2019-02-25T09:51:35.098Z,45.73
2019-02-25T09:52:35.087Z,46.23
2019-02-25T09:53:35.074Z,46.4
2019-02-25T09:54:35.059Z,46.3
2019-02-25T09:55:35.049Z,47.25
2019-02-25T09:56:35.037Z,49.08
2019-02-25T09:57:35.026Z,48.9
2019-02-25T09:58:35.012Z,48.32
2019-02-25T09:59:35.002Z,46.89
2019-02-25T10:00:34.740Z,47.85
2019-02-25T10:01:34.725Z,51.56
2019-02-25T10:02:34.963Z,51.75
2019-02-25T10:03:34.955Z,52.98
2019-02-25T10:04:34.940Z,52.98
2019-02-25T10:05:34.926Z,51.46
2019-02-25T10:06:34.678Z,52.32
2019-02-25T10:07:34.901Z,52.22
2019-02-25T10:08:34.887Z,50.7
2019-02-25T10:09:34.945Z,51.08
2019-02-25T10:10:34.617Z,51.18
2019-02-25T10:11:34.851Z,50.32
2019-02-25T10:12:34.840Z,49.85
2019-02-25T10:13:34.827Z,49.77
2019-02-25T10:14:34.823Z,48.8
2019-02-25T10:15:34.807Z,49.11
2019-02-25T10:16:34.795Z,49.11
2019-02-25T10:17:34.781Z,49.68
2019-02-25T10:18:34.772Z,50.25
2019-02-25T10:19:34.904Z,50.54
2019-02-25T10:20:34.749Z,49.11
2019-02-25T10:21:34.735Z,49.3
2019-02-25T10:22:35.262Z,50.25
2019-02-25T10:23:34.717Z,51.97
2019-02-25T10:24:34.697Z,52.44
2019-02-25T10:25:34.687Z,53.32
2019-02-25T10:26:34.678Z,54.66
2019-02-25T10:27:34.415Z,54.66
2019-02-25T10:28:34.650Z,54.18
2019-02-25T10:29:34.640Z,53.99
2019-02-25T10:30:34.628Z,53.89
2019-02-25T10:31:34.618Z,51.42
2019-02-25T10:32:34.605Z,50.18
2019-02-25T10:33:34.609Z,49.13
2019-02-25T10:34:34.581Z,47.61
2019-02-25T10:35:34.573Z,46.75
2019-02-25T10:36:34.560Z,45.89
2019-02-25T10:37:36.253Z,45.42
2019-02-25T10:38:34.537Z,44.56
2019-02-25T10:39:34.528Z,45.42
2019-02-25T10:40:34.518Z,46.47
2019-02-25T10:41:34.503Z,45.99
2019-02-25T10:42:37.781Z,43.9
2019-02-25T10:43:36.993Z,43.51
2019-02-25T10:44:38.038Z,43.23
2019-02-25T10:45:35.215Z,43.13
2019-02-25T10:46:34.445Z,42.85
2019-02-25T10:47:34.188Z,42.94
2019-02-25T10:48:34.426Z,42.37
2019-02-25T10:49:36.158Z,42.28
2019-02-25T10:50:38.526Z,42.47
2019-02-25T10:51:35.148Z,43.71
2019-02-25T10:52:34.377Z,43.42
2019-02-25T10:53:34.121Z,43.44
2019-02-25T10:54:34.357Z,43.44
2019-02-25T10:55:34.345Z,43.54
2019-02-25T10:56:34.335Z,43.16
2019-02-25T10:57:34.357Z,43.44
2019-02-25T10:58:37.828Z,43.35
2019-02-25T10:59:37.252Z,45.44
2019-02-25T11:00:35.191Z,45.44
2019-02-25T11:01:34.281Z,44.49
2019-02-25T11:02:34.275Z,44.2
2019-02-25T11:03:34.264Z,43.44
2019-02-25T11:04:34.251Z,41.53
2019-02-25T11:05:34.235Z,40.99
2019-02-25T11:06:37.971Z,39.34
2019-02-25T11:07:37.307Z,39.56
2019-02-25T11:08:35.194Z,40.77
2019-02-25T11:09:34.194Z,40.12
2019-02-25T11:10:34.188Z,40.01
2019-02-25T11:11:34.172Z,39.84
2019-02-25T11:12:34.587Z,40.51
2019-02-25T11:13:36.644Z,41.65
2019-02-25T11:14:38.886Z,41.46
2019-02-25T11:15:34.129Z,42.22
2019-02-25T11:16:34.117Z,43.37
2019-02-25T11:17:34.111Z,43.08
2019-02-25T11:18:34.116Z,42.8
2019-02-25T11:19:35.391Z,42.7
2019-02-25T11:20:37.623Z,42.22
2019-02-25T11:21:37.514Z,42.03
2019-02-25T11:22:34.057Z,41.94
2019-02-25T11:23:33.799Z,43.18
2019-02-25T11:24:34.035Z,42.8
2019-02-25T11:25:34.024Z,41.17
2019-02-25T11:26:36.974Z,41.17
2019-02-25T11:27:38.136Z,41.36
2019-02-25T11:28:36.524Z,41.46
2019-02-25T11:29:33.733Z,39.95
2019-02-25T11:30:33.969Z,40.24
2019-02-25T11:31:33.963Z,40.24
2019-02-25T11:32:33.954Z,40.24
2019-02-25T11:33:36.359Z,39.86
2019-02-25T11:34:37.568Z,39.86
2019-02-25T11:35:34.223Z,40.72
2019-02-25T11:36:33.909Z,41.39
2019-02-25T11:37:33.903Z,42.15
2019-02-25T11:38:39.429Z,41.48
2019-02-25T11:39:37.174Z,41.2
2019-02-25T11:40:38.333Z,41.1
2019-02-25T11:41:38.391Z,40.34
2019-02-25T11:42:33.849Z,39.86
2019-02-25T11:43:33.860Z,39.86
2019-02-25T11:44:33.830Z,41.39
2019-02-25T11:45:33.818Z,41.39
2019-02-25T11:46:33.813Z,40.91
2019-02-25T11:47:33.802Z,40.15
2019-02-25T11:48:33.789Z,40.34
2019-02-25T11:49:33.779Z,41.1
2019-02-25T11:50:33.521Z,43.01
2019-02-25T11:51:33.764Z,42.44
2019-02-25T11:52:33.749Z,42.53
2019-02-25T11:53:33.739Z,42.72
2019-02-25T11:54:33.728Z,42.34
2019-02-25T11:55:33.720Z,42.72
2019-02-25T11:56:33.715Z,43.29
2019-02-25T11:57:33.703Z,42.44
2019-02-25T11:58:33.693Z,42.72
2019-02-25T11:59:33.714Z,42.65
2019-02-25T12:00:33.672Z,42.55
2019-02-25T12:01:33.663Z,43.51
2019-02-25T12:02:33.405Z,43.7
2019-02-25T12:03:33.648Z,42.93
2019-02-25T12:04:33.633Z,43.41
2019-02-25T12:05:33.623Z,43.79
2019-02-25T12:06:33.614Z,43.79
2019-02-25T12:07:33.605Z,43.41
2019-02-25T12:08:33.593Z,43.03
2019-02-25T12:09:33.583Z,43.98
2019-02-25T12:10:33.575Z,43.7
2019-02-25T12:11:33.565Z,43.7
2019-02-25T12:12:33.557Z,43.13
2019-02-25T12:13:33.546Z,43.41
2019-02-25T12:14:33.537Z,42.84
2019-02-25T12:15:33.527Z,43.32
2019-02-25T12:16:33.518Z,44.74
2019-02-25T12:17:33.509Z,43.79
2019-02-25T12:18:33.542Z,43.22
2019-02-25T12:19:33.494Z,43.41
2019-02-25T12:20:33.483Z,43.13
2019-02-25T12:21:33.468Z,43.51
2019-02-25T12:22:33.463Z,42.55
2019-02-25T12:23:33.451Z,42.27
2019-02-25T12:24:33.442Z,41.98
2019-02-25T12:25:33.184Z,41.12
2019-02-25T12:26:33.422Z,41.22
2019-02-25T12:27:33.412Z,40.74
2019-02-25T12:28:33.406Z,40.17
2019-02-25T12:29:33.466Z,40.36
2019-02-25T12:30:33.386Z,40.17
2019-02-25T12:31:33.376Z,41.12
2019-02-25T12:32:33.119Z,41.03
2019-02-25T12:33:33.363Z,41.6
2019-02-25T12:34:33.348Z,40.17
2019-02-25T12:35:33.342Z,40.93
2019-02-25T12:36:33.331Z,41.03
2019-02-25T12:37:33.322Z,39.98
2019-02-25T12:38:33.316Z,39.31
2019-02-25T12:39:33.309Z,39.59
2019-02-25T12:40:33.290Z,40.81
2019-02-25T12:41:33.283Z,41.48
2019-02-25T12:42:33.025Z,39.95
2019-02-25T12:43:33.265Z,39.95
2019-02-25T12:44:33.255Z,39.86
2019-02-25T12:45:33.247Z,40.05
2019-02-25T12:46:33.234Z,39.98
2019-02-25T12:47:33.226Z,39.5
2019-02-25T12:48:33.219Z,39.58
2019-02-25T12:49:33.219Z,39.39
2019-02-25T12:50:33.199Z,39.29
2019-02-25T12:51:33.192Z,39
2019-02-25T12:52:33.431Z,38.71
2019-02-25T12:53:33.174Z,38.71
2019-02-25T12:54:33.165Z,39